Aérodrome :
LOGIN :

S'inscrire | Disclaimer

   EN    FR    IT 

 










Légende :    VFR   VFR Marginal   IFR   IFR Intensif   IFR Très Intensif
Visi : 
Plafond : 
>= 8 km
>= 3000ft
5 à 8 km
1000 à 3000 ft
1500m à 5 km
500 à 1000 ft
800 à 1500m
200 à 500 ft
< 800m
< 200 ft
Symboles :   Orages  Brouillard  Fortes neiges  Fortes précipitations  Vent > 20 kt
SIGMETs :   Divers  Orages  Givrage  Turbulence  Onde Orograph.  Cendres Volcan.






- Altitude de l'aérodrome : 1768 ft


LEHC - Huesca Pirineos

DERNIER METAR :
  • 280830Z AUTO 13004KT 070V200 CAVOK 20/10 Q1026

METARs EXPIRÉS :
  • 280800Z AUTO 12004KT 080V170 CAVOK 20/10 Q1027
  • 280730Z AUTO 11004KT 070V170 CAVOK 20/11 Q1027
  • 280700Z AUTO 10004KT 070V130 CAVOK 19/11 Q1027
  • 280630Z AUTO 07003KT 030V110 CAVOK 18/13 Q1027
  • 280600Z AUTO 09003KT 050V120 CAVOK 16/12 Q1027

TAF TAF LEHC
Valide du 28 à 09h jusqu'au 29 à 09h UTC


280800Z 2809/2909 VRB05KT 9999 FEW050 TX28/2814Z TN15/2906Z
BECMG 2820/2823 08007KT



MET'MAP, la Météo Aéronautique d'un coup d'oeil ! - Copyright ORBIFLY Décembre 2007 - Disclaimer

ORBIFLY MET'MAP TEAM :

Programmation & Développement : Alexandra Zaïnal
Sur une idée originale de : Baudouin d'Aumeries
Assistance à la programmation : Marc-Olivier Méhu
Soutien technique & logistique : Manuel Goepfert

Contact : metmap@orbifly.com




SOURCES & CREDITS :

   NOAA